Time;durP1;ratioP1;P1;durP2;ratioP2;P2;SDS_P1;SDS_P2;PMS_P1;PMS_P2;Temp;Humidity;BMP_temperature;BMP_pressure;BME280_temperature;BME280_humidity;BME280_pressure;Samples;Min_cycle;Max_cycle;Signal;HPM_P1;HPM_P2
2023/09/05 00:02:05;;;;;;;7.00;3.80;;;;;;;18.28;52.62;101305.43;105870;1258;64104;-58
2023/09/05 00:04:33;;;;;;;8.90;4.90;;;;;;;18.26;52.24;101303.92;105671;1254;61454;-58
2023/09/05 00:07:00;;;;;;;10.60;4.00;;;;;;;18.24;52.48;101303.59;105132;1259;62476;-59
2023/09/05 00:09:28;;;;;;;7.50;3.90;;;;;;;18.21;52.38;101302.73;105042;1259;59896;-58
2023/09/05 00:11:56;;;;;;;6.70;3.80;;;;;;;18.19;52.22;101301.19;105204;1254;59839;-57
2023/09/05 00:14:23;;;;;;;7.10;3.70;;;;;;;18.16;52.29;101299.13;105359;1259;66178;-57
2023/09/05 00:16:51;;;;;;;8.40;3.90;;;;;;;18.14;52.20;101300.45;105142;1260;60150;-59
2023/09/05 00:19:18;;;;;;;6.80;3.50;;;;;;;18.11;52.08;101303.20;105225;1254;62471;-58
2023/09/05 00:21:46;;;;;;;8.10;3.90;;;;;;;18.08;52.11;101304.73;105347;1254;59666;-59
2023/09/05 00:24:39;;;;;;;6.80;3.60;;;;;;;18.05;52.37;101306.13;105084;1254;59746;-63
2023/09/05 00:27:09;;;;;;;6.70;3.20;;;;;;;17.99;52.25;101307.73;105244;1254;64561;-61
2023/09/05 00:29:38;;;;;;;7.30;3.80;;;;;;;17.95;52.36;101307.25;105593;1260;60266;-62
2023/09/05 00:32:05;;;;;;;7.40;3.70;;;;;;;17.91;52.56;101306.87;106210;1254;62491;-61
2023/09/05 00:34:34;;;;;;;7.70;3.40;;;;;;;17.89;52.61;101305.84;106066;1258;60501;-62
2023/09/05 00:37:04;;;;;;;6.90;3.90;;;;;;;17.87;52.80;101305.93;105970;1257;60468;-62
2023/09/05 00:39:33;;;;;;;6.30;3.30;;;;;;;17.84;52.85;101307.90;105562;1258;64994;-61
2023/09/05 00:42:03;;;;;;;6.40;3.20;;;;;;;17.82;52.79;101311.31;105936;1258;63396;-61
2023/09/05 00:44:31;;;;;;;6.60;3.20;;;;;;;17.79;52.73;101315.28;105175;1254;63716;-60
2023/09/05 00:46:58;;;;;;;7.60;3.70;;;;;;;17.78;52.79;101319.88;105795;1254;60441;-64
2023/09/05 00:49:29;;;;;;;7.30;3.80;;;;;;;17.76;52.91;101324.84;106075;1254;60379;-65
2023/09/05 00:51:58;;;;;;;8.50;3.20;;;;;;;17.74;53.28;101321.27;105682;1254;64499;-63
2023/09/05 00:54:26;;;;;;;7.60;3.70;;;;;;;17.72;53.11;101319.48;105724;1259;60559;-64
2023/09/05 00:56:55;;;;;;;7.50;3.30;;;;;;;17.70;53.16;101321.48;105258;1254;64021;-63
2023/09/05 00:59:26;;;;;;;9.10;3.00;;;;;;;17.68;53.23;101323.52;105325;1254;60819;-68
2023/09/05 01:01:55;;;;;;;7.10;3.30;;;;;;;17.65;53.36;101323.34;105304;1257;60531;-68
2023/09/05 01:04:23;;;;;;;9.40;3.30;;;;;;;17.64;53.44;101326.83;105271;1254;63722;-68
2023/09/05 01:07:12;;;;;;;6.40;2.90;;;;;;;17.67;53.50;101326.20;105348;1254;61386;-67
2023/09/05 01:10:06;;;;;;;7.60;3.40;;;;;;;17.72;53.51;101327.30;105629;1254;64407;-70
2023/09/05 01:12:33;;;;;;;6.80;3.60;;;;;;;17.75;53.18;101331.34;105465;1256;60539;-68
2023/09/05 01:15:01;;;;;;;6.20;2.90;;;;;;;17.75;52.96;101330.94;105147;1254;60600;-68
2023/09/05 01:17:29;;;;;;;6.30;3.10;;;;;;;17.73;52.86;101331.47;105336;1259;63739;-69
2023/09/05 01:19:57;;;;;;;7.70;3.30;;;;;;;17.71;53.23;101335.23;106004;1254;61616;-69
2023/09/05 01:22:35;;;;;;;7.10;3.50;;;;;;;17.69;53.35;101334.07;105317;1259;71459;-69
2023/09/05 01:25:03;;;;;;;6.10;3.30;;;;;;;17.66;53.26;101336.23;106633;1254;60428;-67
2023/09/05 01:27:31;;;;;;;6.80;3.60;;;;;;;17.63;53.22;101338.10;105911;1259;60297;-71
2023/09/05 01:29:58;;;;;;;6.10;2.70;;;;;;;17.60;53.24;101340.31;105183;1254;64867;-66
2023/09/05 01:32:27;;;;;;;7.40;2.90;;;;;;;17.56;53.22;101342.63;105141;1254;61417;-70
2023/09/05 01:34:55;;;;;;;6.00;2.80;;;;;;;17.53;53.29;101339.65;105303;1257;63779;-65
2023/09/05 01:37:23;;;;;;;6.90;3.70;;;;;;;17.49;53.37;101339.66;105517;1257;60467;-67
2023/09/05 01:39:51;;;;;;;6.60;3.30;;;;;;;17.45;53.62;101338.07;106176;1259;60894;-65
2023/09/05 01:42:18;;;;;;;6.20;3.20;;;;;;;17.41;53.84;101336.11;106143;1254;63724;-65
2023/09/05 01:44:46;;;;;;;6.90;3.00;;;;;;;17.38;54.05;101335.30;106226;1260;60490;-66
2023/09/05 01:47:13;;;;;;;6.40;3.10;;;;;;;17.42;54.02;101334.97;106197;1254;63923;-64
2023/09/05 01:49:41;;;;;;;8.40;3.30;;;;;;;17.47;54.07;101337.17;105259;1254;60491;-65
2023/09/05 01:52:08;;;;;;;6.10;3.10;;;;;;;17.49;54.03;101333.63;106090;1258;60642;-66
2023/09/05 01:54:40;;;;;;;6.30;3.20;;;;;;;17.49;53.88;101339.06;106276;1260;64942;-66
2023/09/05 01:57:07;;;;;;;6.40;3.00;;;;;;;17.47;53.89;101339.06;105815;1255;61556;-66
2023/09/05 01:59:35;;;;;;;6.00;2.90;;;;;;;17.46;54.02;101339.55;105302;1254;62522;-65
2023/09/05 02:02:03;;;;;;;5.30;2.70;;;;;;;17.44;53.95;101340.77;105108;1260;60574;-65
2023/09/05 02:04:30;;;;;;;6.90;3.60;;;;;;;17.41;53.86;101336.81;107861;1257;61099;-64
2023/09/05 02:06:59;;;;;;;7.50;3.20;;;;;;;17.37;53.90;101335.09;106969;1256;64846;-67
2023/09/05 02:09:26;;;;;;;7.10;3.20;;;;;;;17.33;54.01;101337.06;106820;1257;61538;-65
2023/09/05 02:11:54;;;;;;;6.20;3.00;;;;;;;17.29;54.39;101335.15;105368;1257;63753;-66
2023/09/05 02:14:22;;;;;;;6.10;3.00;;;;;;;17.24;54.33;101335.18;105193;1254;60512;-66
2023/09/05 02:16:51;;;;;;;7.60;3.20;;;;;;;17.19;54.37;101331.08;105356;1260;60440;-66
2023/09/05 02:19:20;;;;;;;7.00;3.00;;;;;;;17.13;54.48;101334.14;105460;1259;65385;-65
2023/09/05 02:21:49;;;;;;;6.80;3.20;;;;;;;17.08;54.66;101334.02;105447;1260;60562;-63
2023/09/05 02:24:17;;;;;;;6.70;3.20;;;;;;;17.08;54.84;101336.66;105201;1256;64195;-64
2023/09/05 02:26:48;;;;;;;7.10;3.90;;;;;;;17.10;54.86;101340.02;105527;1254;61165;-63
2023/09/05 02:29:16;;;;;;;5.70;3.10;;;;;;;17.10;54.83;101338.08;105345;1260;60364;-67
2023/09/05 02:31:44;;;;;;;7.90;2.80;;;;;;;17.08;54.82;101343.05;105236;1254;63673;-66
2023/09/05 02:34:11;;;;;;;8.50;3.40;;;;;;;17.05;54.90;101342.46;105480;1254;60543;-66
2023/09/05 02:36:39;;;;;;;6.30;3.40;;;;;;;17.01;54.94;101344.42;105205;1257;66150;-66
2023/09/05 02:39:06;;;;;;;7.70;2.90;;;;;;;16.97;54.93;101349.10;106488;1254;60562;-67
2023/09/05 02:41:34;;;;;;;6.10;3.10;;;;;;;16.93;55.05;101353.36;106135;1254;60441;-65
2023/09/05 02:44:01;;;;;;;11.50;3.80;;;;;;;16.89;55.27;101355.05;105361;1257;65485;-62
2023/09/05 02:46:29;;;;;;;6.20;3.10;;;;;;;16.86;55.54;101355.51;105234;1257;61573;-65
2023/09/05 02:48:57;;;;;;;7.70;3.00;;;;;;;16.83;55.67;101355.07;106090;1254;62747;-66
2023/09/05 02:51:24;;;;;;;6.70;2.80;;;;;;;16.84;55.75;101354.80;106162;1257;60529;-66
2023/09/05 02:53:56;;;;;;;6.30;3.00;;;;;;;16.86;55.58;101354.64;106265;1257;60450;-64
2023/09/05 02:56:24;;;;;;;6.10;3.00;;;;;;;16.84;55.38;101352.84;105514;1253;63679;-66
2023/09/05 02:58:51;;;;;;;6.70;3.00;;;;;;;16.84;55.42;101358.20;105274;1259;60602;-65
2023/09/05 03:01:19;;;;;;;5.70;2.90;;;;;;;16.82;55.81;101353.95;105288;1253;63741;-66
2023/09/05 03:03:48;;;;;;;7.90;3.30;;;;;;;16.79;55.69;101355.23;105303;1257;60562;-67
2023/09/05 03:06:16;;;;;;;7.50;3.20;;;;;;;16.76;55.92;101355.34;105648;1257;60427;-67
2023/09/05 03:08:46;;;;;;;6.30;3.20;;;;;;;16.72;56.07;101359.09;105190;1260;64964;-65
2023/09/05 03:11:15;;;;;;;6.00;3.00;;;;;;;16.68;56.18;101359.48;105320;1259;62676;-65
2023/09/05 03:13:44;;;;;;;5.90;2.80;;;;;;;16.68;56.23;101364.95;105480;1258;63723;-59
2023/09/05 03:16:12;;;;;;;6.70;3.20;;;;;;;16.70;55.92;101365.43;105540;1257;60558;-63
2023/09/05 03:18:42;;;;;;;6.40;3.00;;;;;;;16.72;55.87;101365.66;105045;1259;60569;-63
2023/09/05 03:21:10;;;;;;;10.00;3.30;;;;;;;16.70;55.75;101369.89;105283;1258;64896;-65
2023/09/05 03:23:38;;;;;;;7.60;3.30;;;;;;;16.69;55.84;101373.69;106409;1258;61347;-65
2023/09/05 03:26:05;;;;;;;5.60;2.50;;;;;;;16.67;55.78;101376.34;106118;1258;63727;-68
2023/09/05 03:28:43;;;;;;;6.10;3.20;;;;;;;16.64;55.90;101380.92;106158;1257;60545;-67
2023/09/05 03:31:14;;;;;;;6.10;2.90;;;;;;;16.58;56.08;101381.23;106033;1253;61134;-63
2023/09/05 03:33:42;;;;;;;5.50;3.10;;;;;;;16.54;56.25;101385.87;105279;1254;65003;-63
2023/09/05 03:36:11;;;;;;;5.90;2.60;;;;;;;16.51;56.70;101388.94;105470;1257;60408;-69
2023/09/05 03:38:38;;;;;;;7.00;3.60;;;;;;;16.54;56.33;101388.29;107353;1260;63901;-59
2023/09/05 03:41:06;;;;;;;11.00;5.60;;;;;;;16.59;56.45;101390.15;105466;1259;60565;-55
2023/09/05 03:43:33;;;;;;;7.40;3.30;;;;;;;16.63;56.17;101388.97;105953;1259;60537;-57
2023/09/05 03:46:01;;;;;;;14.40;7.20;;;;;;;16.63;55.92;101388.73;105387;1257;65371;-60
2023/09/05 03:48:29;;;;;;;9.20;5.90;;;;;;;16.62;55.78;101390.24;105361;1257;61327;-67
2023/09/05 03:50:57;;;;;;;9.00;6.00;;;;;;;16.60;55.79;101387.98;105396;1257;62493;-66
2023/09/05 03:53:24;;;;;;;8.30;4.70;;;;;;;16.58;55.80;101387.23;105342;1254;61064;-73
2023/09/05 03:55:52;;;;;;;11.30;7.50;;;;;;;16.56;55.77;101389.95;106855;1259;60386;-72
2023/09/05 03:58:20;;;;;;;8.90;4.50;;;;;;;16.54;56.08;101392.02;105269;1260;64876;-73
2023/09/05 04:00:47;;;;;;;10.30;7.00;;;;;;;16.54;56.28;101394.14;105956;1256;60368;-69
2023/09/05 04:03:16;;;;;;;7.30;3.80;;;;;;;16.55;56.11;101394.98;105141;1256;63690;-60
2023/09/05 04:05:43;;;;;;;7.00;3.70;;;;;;;16.58;56.02;101397.02;105079;1259;60511;-66
2023/09/05 04:08:11;;;;;;;8.90;4.40;;;;;;;16.62;55.96;101404.10;105360;1254;60373;-65
2023/09/05 04:10:38;;;;;;;5.90;3.50;;;;;;;16.66;55.90;101405.87;106019;1258;64915;-60
2023/09/05 04:13:06;;;;;;;7.00;3.80;;;;;;;16.67;55.75;101408.96;106608;1258;61292;-67
2023/09/05 04:15:33;;;;;;;7.90;3.50;;;;;;;16.68;55.56;101410.84;105915;1254;64154;-59
2023/09/05 04:18:01;;;;;;;7.20;3.40;;;;;;;16.68;55.70;101409.94;105282;1254;60446;-62
2023/09/05 04:20:31;;;;;;;7.60;3.20;;;;;;;16.68;55.81;101411.88;105877;1255;60355;-60
2023/09/05 04:22:58;;;;;;;6.40;3.50;;;;;;;16.68;55.57;101409.45;106772;1260;64923;-65
2023/09/05 04:25:27;;;;;;;7.00;3.60;;;;;;;16.68;55.66;101415.09;106904;1254;61398;-63
2023/09/05 04:27:55;;;;;;;7.60;3.70;;;;;;;16.66;55.64;101418.22;105207;1254;63719;-60
2023/09/05 04:30:22;;;;;;;7.30;3.40;;;;;;;16.66;55.69;101419.70;105085;1254;60448;-67
2023/09/05 04:32:50;;;;;;;6.00;3.50;;;;;;;16.70;55.73;101418.09;105119;1260;60530;-59
2023/09/05 04:35:18;;;;;;;7.20;3.70;;;;;;;16.77;55.78;101419.02;105302;1260;64893;-60
2023/09/05 04:37:45;;;;;;;6.10;3.00;;;;;;;16.82;55.45;101416.45;105741;1258;60582;-67
2023/09/05 04:40:13;;;;;;;6.80;3.40;;;;;;;16.85;55.57;101416.90;106297;1256;62485;-66
2023/09/05 04:42:41;;;;;;;6.40;3.20;;;;;;;16.88;55.76;101416.10;106243;1254;60540;-61
2023/09/05 04:45:09;;;;;;;9.50;4.20;;;;;;;16.92;55.51;101414.20;105018;1257;60384;-66
2023/09/05 04:47:40;;;;;;;7.00;3.40;;;;;;;16.94;55.30;101409.35;109109;1258;63703;-64
2023/09/05 04:50:08;;;;;;;7.10;3.00;;;;;;;16.97;55.34;101408.62;109064;1254;61785;-65
2023/09/05 04:52:36;;;;;;;7.40;3.20;;;;;;;16.99;55.44;101410.39;109221;1256;64165;-68
2023/09/05 04:55:04;;;;;;;7.20;4.00;;;;;;;17.00;55.01;101406.73;109195;1253;58546;-71
2023/09/05 04:57:31;;;;;;;5.80;3.10;;;;;;;17.01;54.98;101407.52;105762;1256;60351;-70
2023/09/05 04:59:59;;;;;;;7.70;3.00;;;;;;;17.04;55.16;101411.11;105285;1254;63797;-62
2023/09/05 05:02:28;;;;;;;9.20;3.30;;;;;;;17.12;55.00;101410.78;105490;1257;61404;-64
2023/09/05 05:04:56;;;;;;;8.00;3.40;;;;;;;17.19;54.62;101413.36;107701;1257;63662;-65
2023/09/05 05:07:24;;;;;;;5.90;3.10;;;;;;;17.22;54.58;101416.73;105365;1255;60408;-62
2023/09/05 05:09:52;;;;;;;6.70;3.10;;;;;;;17.26;54.89;101413.93;105250;1260;60498;-66
2023/09/05 05:12:19;;;;;;;7.00;3.20;;;;;;;17.30;54.80;101416.04;105157;1257;64848;-68
2023/09/05 05:14:47;;;;;;;6.80;3.00;;;;;;;17.34;54.57;101414.32;105097;1255;61367;-58
2023/09/05 05:17:14;;;;;;;7.20;3.30;;;;;;;17.36;54.28;101408.60;105170;1259;63728;-63
2023/09/05 05:19:42;;;;;;;6.60;3.40;;;;;;;17.38;54.31;101407.18;104914;1255;60479;-60
2023/09/05 05:22:11;;;;;;;7.20;3.40;;;;;;;17.40;54.38;101403.75;105235;1255;59253;-67
2023/09/05 05:24:38;;;;;;;5.90;3.20;;;;;;;17.43;54.48;101403.84;105108;1257;64921;-68
2023/09/05 05:27:06;;;;;;;6.40;3.70;;;;;;;17.51;54.37;101406.79;105041;1267;60469;-66
2023/09/05 05:29:35;;;;;;;5.10;2.70;;;;;;;17.60;54.35;101406.48;109249;1252;63713;-64
2023/09/05 05:32:03;;;;;;;7.90;3.10;;;;;;;17.69;54.33;101406.94;109237;1254;58545;-69
2023/09/05 05:34:31;;;;;;;7.00;3.00;;;;;;;17.78;54.28;101408.56;109239;1254;58349;-69
2023/09/05 05:36:59;;;;;;;9.40;4.00;;;;;;;17.87;54.06;101408.64;109264;1254;63666;-66
2023/09/05 05:39:26;;;;;;;7.50;3.10;;;;;;;17.95;53.99;101407.70;109210;1254;61396;-68
2023/09/05 05:41:54;;;;;;;7.60;3.10;;;;;;;18.02;53.55;101401.52;105347;1254;62933;-61
2023/09/05 05:44:21;;;;;;;8.40;3.30;;;;;;;18.08;53.55;101397.94;105249;1257;60472;-61
2023/09/05 05:46:48;;;;;;;8.40;3.70;;;;;;;18.13;53.13;101398.65;105347;1254;61029;-61
2023/09/05 05:49:16;;;;;;;8.10;3.10;;;;;;;18.18;53.23;101399.27;105298;1257;65135;-66
2023/09/05 05:51:44;;;;;;;7.40;3.20;;;;;;;18.22;52.70;101399.14;105269;1254;61400;-62
2023/09/05 05:54:11;;;;;;;6.20;3.00;;;;;;;18.25;52.67;101406.27;105276;1254;64906;-66
2023/09/05 05:56:39;;;;;;;7.10;3.30;;;;;;;18.27;52.34;101407.70;105222;1254;60572;-68
2023/09/05 05:59:06;;;;;;;6.30;3.30;;;;;;;18.29;52.51;101410.48;105581;1254;61799;-64
2023/09/05 06:01:34;;;;;;;6.10;3.10;;;;;;;18.32;52.33;101411.76;105396;1254;64890;-60
2023/09/05 06:04:02;;;;;;;8.30;2.80;;;;;;;18.34;52.11;101415.48;106675;1254;61356;-61
2023/09/05 06:06:29;;;;;;;9.30;3.30;;;;;;;18.37;52.48;101417.15;105841;1254;63649;-60
2023/09/05 06:08:57;;;;;;;6.50;3.10;;;;;;;18.42;52.36;101419.77;105362;1254;60556;-61
2023/09/05 06:11:24;;;;;;;7.50;3.30;;;;;;;18.46;51.77;101424.10;105335;1257;60523;-61
2023/09/05 06:13:52;;;;;;;6.70;3.20;;;;;;;18.51;51.86;101427.20;105271;1254;64919;-63
2023/09/05 06:16:20;;;;;;;9.30;3.30;;;;;;;18.56;51.52;101429.38;105210;1253;61610;-61
2023/09/05 06:18:48;;;;;;;7.70;3.30;;;;;;;18.60;51.26;101424.52;105355;1257;62487;-64
2023/09/05 06:21:15;;;;;;;8.50;3.20;;;;;;;18.64;51.56;101421.47;105320;1254;60612;-63
2023/09/05 06:23:43;;;;;;;13.60;3.40;;;;;;;18.70;51.54;101420.40;105352;1257;60387;-62
2023/09/05 06:26:10;;;;;;;6.00;3.30;;;;;;;18.76;51.73;101419.92;105259;1257;67662;-65
2023/09/05 06:28:38;;;;;;;6.10;3.20;;;;;;;18.83;51.64;101418.75;105210;1257;60501;-60
2023/09/05 06:31:06;;;;;;;6.40;3.20;;;;;;;18.90;51.29;101420.03;105195;1254;65560;-60
2023/09/05 06:33:34;;;;;;;6.20;2.60;;;;;;;18.98;51.39;101418.60;109097;1253;59014;-61
2023/09/05 06:36:07;;;;;;;11.70;3.70;;;;;;;19.06;51.55;101420.77;109300;1254;58558;-57
2023/09/05 06:38:35;;;;;;;8.20;3.10;;;;;;;19.16;51.20;101420.50;106556;1253;64991;-59
2023/09/05 06:41:07;;;;;;;8.80;3.20;;;;;;;19.25;50.66;101417.30;105870;1256;60360;-61
2023/09/05 06:43:34;;;;;;;9.50;3.30;;;;;;;19.33;50.71;101420.04;105864;1254;63835;-60
2023/09/05 06:46:06;;;;;;;6.50;3.10;;;;;;;19.41;49.83;101417.22;105609;1257;60459;-60
2023/09/05 06:48:35;;;;;;;6.90;3.10;;;;;;;19.50;49.51;101413.88;107515;1257;59251;-57
2023/09/05 06:51:02;;;;;;;8.50;4.10;;;;;;;19.58;49.94;101411.13;105975;1255;63689;-60
2023/09/05 06:53:31;;;;;;;7.00;3.30;;;;;;;19.65;49.67;101408.93;105165;1254;60674;-63
2023/09/05 06:55:59;;;;;;;6.60;2.80;;;;;;;19.74;49.70;101410.14;109286;1254;63688;-62
2023/09/05 06:58:26;;;;;;;10.70;3.60;;;;;;;19.84;49.72;101407.58;108424;1254;59308;-60
2023/09/05 07:00:55;;;;;;;8.20;2.90;;;;;;;19.94;49.62;101407.80;108416;1254;60766;-61
2023/09/05 07:03:24;;;;;;;7.90;3.20;;;;;;;20.05;49.16;101402.24;105355;1252;63635;-60
2023/09/05 07:05:56;;;;;;;10.20;4.10;;;;;;;20.13;48.52;101400.63;105210;1254;61320;-60
2023/09/05 07:08:33;;;;;;;7.80;3.00;;;;;;;20.20;48.79;101399.88;105928;1254;63678;-64
2023/09/05 07:11:01;;;;;;;5.50;2.90;;;;;;;20.29;49.23;101399.53;105281;1257;60463;-64
2023/09/05 07:13:29;;;;;;;7.50;3.00;;;;;;;20.37;48.99;101399.73;105373;1257;60401;-68
2023/09/05 07:15:57;;;;;;;7.20;3.30;;;;;;;20.44;48.71;101402.25;106996;1254;63636;-61
2023/09/05 07:18:25;;;;;;;5.50;2.90;;;;;;;20.51;49.41;101401.90;109286;1253;61358;-63
2023/09/05 07:20:53;;;;;;;6.20;2.90;;;;;;;20.58;47.97;101394.63;109259;1254;63745;-62
2023/09/05 07:23:21;;;;;;;21.50;4.80;;;;;;;20.68;48.15;101393.48;109300;1254;58591;-61
2023/09/05 07:25:49;;;;;;;7.90;3.70;;;;;;;20.78;47.99;101393.86;105507;1254;60367;-62
2023/09/05 07:28:16;;;;;;;10.00;3.50;;;;;;;20.87;47.73;101395.54;106482;1254;65384;-64
2023/09/05 07:30:44;;;;;;;9.70;3.30;;;;;;;20.94;47.16;101394.88;105284;1254;61453;-61
2023/09/05 07:33:12;;;;;;;6.60;2.60;;;;;;;21.03;47.09;101396.32;109277;1253;63737;-57
2023/09/05 07:35:40;;;;;;;6.40;3.70;;;;;;;21.10;47.05;101396.08;109303;1251;58234;-63
2023/09/05 07:38:07;;;;;;;6.00;2.90;;;;;;;21.18;47.01;101388.25;109330;1254;58226;-62
2023/09/05 07:40:34;;;;;;;5.70;2.70;;;;;;;21.27;46.30;101378.74;109287;1253;64939;-62
2023/09/05 07:43:03;;;;;;;4.60;2.20;;;;;;;21.37;46.35;101381.36;108485;1254;60506;-62
2023/09/05 07:45:32;;;;;;;5.30;2.40;;;;;;;21.46;46.19;101377.55;105974;1254;62531;-59
2023/09/05 07:48:00;;;;;;;7.40;2.30;;;;;;;21.53;44.34;101377.29;105984;1257;60439;-60
2023/09/05 07:50:27;;;;;;;6.30;2.50;;;;;;;21.61;44.57;101381.19;106093;1255;59283;-60
2023/09/05 07:52:55;;;;;;;5.50;2.30;;;;;;;21.69;44.83;101380.27;105916;1254;64968;-60
2023/09/05 07:55:23;;;;;;;5.90;2.40;;;;;;;21.77;44.20;101380.52;105527;1254;61525;-61
2023/09/05 07:57:51;;;;;;;5.20;2.00;;;;;;;21.82;41.97;101378.73;105497;1256;63698;-60
2023/09/05 08:00:20;;;;;;;4.40;1.80;;;;;;;21.84;41.56;101378.23;105323;1256;60542;-58
2023/09/05 08:02:47;;;;;;;6.90;2.30;;;;;;;21.87;41.44;101378.30;105630;1252;60507;-59
2023/09/05 08:05:15;;;;;;;4.40;1.80;;;;;;;21.91;41.43;101377.92;105523;1254;64905;-60
2023/09/05 08:07:43;;;;;;;5.20;1.90;;;;;;;21.93;41.26;101381.05;105687;1254;61411;-59
2023/09/05 08:10:10;;;;;;;4.50;2.10;;;;;;;21.96;41.05;101379.27;105497;1257;62454;-60
2023/09/05 08:12:38;;;;;;;8.10;2.20;;;;;;;22.00;40.18;101379.77;105527;1257;60546;-59
2023/09/05 08:15:06;;;;;;;5.00;2.20;;;;;;;22.03;40.74;101381.48;105887;1252;60623;-60
2023/09/05 08:17:33;;;;;;;6.00;2.00;;;;;;;22.07;40.56;101377.11;106002;1257;64903;-58
2023/09/05 08:20:04;;;;;;;5.30;2.00;;;;;;;22.11;40.51;101378.60;106035;1254;60440;-59
2023/09/05 08:22:32;;;;;;;7.00;2.10;;;;;;;22.15;41.46;101375.30;106058;1253;370359;-59
2023/09/05 08:37:02;;;;;;;3.80;1.70;;;;;;;22.48;40.66;101381.36;102835;1287;605042;-61
2023/09/05 08:39:30;;;;;;;4.70;2.10;;;;;;;22.91;39.41;101376.09;104201;1267;171283;-56
2023/09/05 08:41:58;;;;;;;5.10;2.40;;;;;;;22.92;39.69;101379.20;104954;1267;59397;-60
2023/09/05 08:44:25;;;;;;;6.20;2.90;;;;;;;22.92;40.70;101377.83;104768;1264;63297;-68
2023/09/05 08:46:53;;;;;;;9.40;2.10;;;;;;;22.93;40.53;101377.85;104855;1264;60135;-68
2023/09/05 08:49:20;;;;;;;5.50;2.50;;;;;;;22.93;40.42;101379.60;104788;1265;63827;-68
2023/09/05 08:51:49;;;;;;;6.40;2.30;;;;;;;22.93;40.50;101373.52;104625;1261;60751;-68
2023/09/05 08:54:17;;;;;;;4.40;1.80;;;;;;;22.93;40.22;101373.70;104669;1265;59301;-68
2023/09/05 08:56:45;;;;;;;4.60;2.00;;;;;;;22.94;40.71;101373.08;104814;1258;63809;-63
2023/09/05 08:59:13;;;;;;;4.90;2.10;;;;;;;22.94;40.87;101367.30;104864;1258;60137;-68
2023/09/05 09:01:44;;;;;;;7.80;2.70;;;;;;;22.97;40.17;101366.94;105031;1261;62515;-67
2023/09/05 09:04:13;;;;;;;5.80;2.50;;;;;;;23.01;39.52;101368.90;106728;1260;59649;-67
2023/09/05 09:06:42;;;;;;;4.80;1.90;;;;;;;23.02;38.87;101370.16;105161;1263;59671;-65
2023/09/05 09:09:34;;;;;;;5.20;2.00;;;;;;;23.03;39.22;101370.45;104856;1259;64124;-62
2023/09/05 09:12:03;;;;;;;5.80;2.20;;;;;;;23.03;39.10;101372.39;105454;1258;61518;-62
2023/09/05 09:14:31;;;;;;;13.80;2.10;;;;;;;23.04;38.55;101374.57;106323;1259;65872;-63
2023/09/05 09:17:00;;;;;;;4.30;1.90;;;;;;;23.08;38.06;101373.46;104911;1257;59773;-68
2023/09/05 09:19:30;;;;;;;4.70;2.30;;;;;;;23.11;38.67;101374.67;105435;1261;59643;-65
2023/09/05 09:22:00;;;;;;;4.70;2.00;;;;;;;23.15;38.45;101368.80;104796;1259;64079;-65
2023/09/05 09:24:35;;;;;;;4.70;2.20;;;;;;;23.21;38.93;101368.14;106785;1258;60244;-64
2023/09/05 09:27:04;;;;;;;4.80;1.80;;;;;;;23.27;38.38;101367.45;105432;1261;63884;-59
2023/09/05 09:29:32;;;;;;;4.70;2.00;;;;;;;23.30;38.35;101366.52;106244;1263;59776;-61
2023/09/05 09:32:09;;;;;;;5.00;2.40;;;;;;;23.33;37.50;101368.50;105646;1258;59208;-66
2023/09/05 09:34:40;;;;;;;4.40;1.80;;;;;;;23.33;37.46;101368.16;105906;1254;62846;-67
2023/09/05 09:37:09;;;;;;;6.40;2.60;;;;;;;23.31;37.39;101364.42;105515;1254;61479;-68
2023/09/05 09:39:37;;;;;;;5.90;2.30;;;;;;;23.29;36.48;101365.45;105210;1256;63822;-67
2023/09/05 09:42:04;;;;;;;5.90;2.60;;;;;;;23.29;36.26;101358.80;105728;1254;59599;-66
2023/09/05 09:44:34;;;;;;;4.90;2.40;;;;;;;23.32;36.43;101358.36;105936;1254;59617;-68
2023/09/05 09:47:03;;;;;;;5.40;2.30;;;;;;;23.38;37.59;101361.27;106932;1254;66267;-66
2023/09/05 09:49:30;;;;;;;5.00;2.20;;;;;;;23.43;37.07;101357.48;105821;1254;61365;-65
2023/09/05 09:52:03;;;;;;;5.40;2.50;;;;;;;23.45;36.55;101356.77;105338;1256;64567;-66
2023/09/05 09:54:37;;;;;;;5.10;2.00;;;;;;;23.47;35.93;101357.55;106076;1259;59518;-69
2023/09/05 09:57:05;;;;;;;4.60;2.00;;;;;;;23.50;36.64;101356.45;108311;1255;59728;-67
2023/09/05 09:59:37;;;;;;;10.10;2.70;;;;;;;23.55;36.32;101349.07;106000;1256;62903;-69
2023/09/05 10:02:15;;;;;;;7.10;2.80;;;;;;;23.60;34.79;101348.48;105560;1254;61497;-71
2023/09/05 10:04:43;;;;;;;5.70;2.40;;;;;;;23.64;33.85;101350.35;106135;1254;63795;-68
2023/09/05 10:07:14;;;;;;;6.40;2.30;;;;;;;23.67;33.56;101351.71;105925;1254;60503;-69
2023/09/05 10:09:44;;;;;;;6.90;2.60;;;;;;;23.71;34.14;101350.13;105600;1254;59775;-67
2023/09/05 10:12:14;;;;;;;6.20;2.80;;;;;;;23.76;34.43;101348.28;105655;1254;65538;-68
2023/09/05 10:14:41;;;;;;;6.00;2.60;;;;;;;23.81;34.84;101343.27;105594;1254;61309;-65
2023/09/05 10:17:09;;;;;;;5.50;2.40;;;;;;;23.83;34.70;101344.56;105068;1257;63791;-67
2023/09/05 10:19:37;;;;;;;7.70;2.50;;;;;;;23.87;34.41;101340.60;105821;1254;59595;-68
2023/09/05 10:22:04;;;;;;;5.10;2.30;;;;;;;23.91;34.01;101338.83;105980;1256;59257;-67
2023/09/05 10:24:32;;;;;;;6.50;2.30;;;;;;;23.96;33.62;101340.74;106042;1254;63824;-68
2023/09/05 10:26:59;;;;;;;5.30;2.10;;;;;;;24.02;32.70;101334.66;105895;1254;60314;-69
2023/09/05 10:29:50;;;;;;;5.30;2.30;;;;;;;24.06;32.96;101335.34;105923;1257;63740;-70
2023/09/05 10:32:19;;;;;;;6.30;2.50;;;;;;;24.10;32.67;101329.67;105530;1254;59711;-68
2023/09/05 10:34:46;;;;;;;5.70;2.10;;;;;;;24.14;32.73;101330.16;105964;1258;59753;-69
2023/09/05 10:37:15;;;;;;;4.40;2.00;;;;;;;24.18;32.19;101324.55;105834;1259;64136;-59
2023/09/05 10:39:57;;;;;;;6.30;2.80;;;;;;;24.23;32.11;101324.19;106272;1254;63947;-60
2023/09/05 10:42:28;;;;;;;4.70;2.30;;;;;;;24.26;32.34;101322.48;105071;1254;63725;-59
2023/09/05 10:44:55;;;;;;;5.10;2.40;;;;;;;24.29;31.77;101318.95;105264;1256;59726;-59
2023/09/05 10:47:27;;;;;;;6.90;2.30;;;;;;;24.32;31.91;101316.08;105265;1258;59649;-60
2023/09/05 10:49:59;;;;;;;6.30;2.60;;;;;;;24.38;31.89;101312.84;105332;1255;64574;-61
2023/09/05 10:52:29;;;;;;;7.80;2.40;;;;;;;24.43;31.69;101313.17;105219;1260;60119;-58
2023/09/05 10:54:58;;;;;;;6.20;2.30;;;;;;;24.46;31.34;101311.90;105283;1254;63736;-56
2023/09/05 10:57:38;;;;;;;8.60;2.90;;;;;;;24.50;31.43;101312.05;106683;1256;59642;-58
2023/09/05 11:00:15;;;;;;;5.50;2.00;;;;;;;24.54;30.53;101310.45;105477;1262;59558;-60
2023/09/05 11:02:45;;;;;;;6.00;2.10;;;;;;;24.58;30.31;101309.95;105213;1254;62911;-60
2023/09/05 11:05:18;;;;;;;4.70;2.20;;;;;;;24.62;30.34;101303.20;105139;1256;61383;-63
2023/09/05 11:07:46;;;;;;;6.00;2.60;;;;;;;24.66;29.86;101301.75;105267;1257;62491;-56
2023/09/05 11:10:33;;;;;;;5.20;2.40;;;;;;;24.70;30.55;101301.66;105443;1254;59687;-66
2023/09/05 11:13:11;;;;;;;6.00;2.30;;;;;;;24.74;30.26;101295.70;104946;1258;59599;-66
2023/09/05 11:15:43;;;;;;;4.40;2.10;;;;;;;24.79;29.73;101295.11;108991;1259;64092;-63
2023/09/05 11:18:12;;;;;;;7.50;2.00;;;;;;;24.86;30.59;101295.29;108590;1255;61568;-67
2023/09/05 11:20:42;;;;;;;6.50;2.70;;;;;;;24.98;30.29;101296.09;104886;1260;62489;-68
2023/09/05 11:23:14;;;;;;;6.10;2.80;;;;;;;25.07;30.42;101290.52;104888;1256;59766;-56
2023/09/05 11:25:46;;;;;;;5.40;2.60;;;;;;;25.13;30.61;101288.28;104878;1256;59787;-58
2023/09/05 11:28:14;;;;;;;5.10;2.60;;;;;;;25.19;30.62;101287.52;104908;1260;64182;-58
2023/09/05 11:30:43;;;;;;;5.20;2.10;;;;;;;25.26;30.04;101284.19;108542;1254;61495;-59
2023/09/05 11:33:14;;;;;;;7.00;2.70;;;;;;;25.29;28.73;101285.14;104764;1260;62601;-57
2023/09/05 11:35:45;;;;;;;5.90;2.90;;;;;;;25.27;28.00;101283.09;104721;1261;59766;-59
2023/09/05 11:38:13;;;;;;;4.70;2.20;;;;;;;25.24;28.23;101282.64;105287;1256;59647;-60